Time;durP1;ratioP1;P1;durP2;ratioP2;P2;SDS_P1;SDS_P2;PMS_P1;PMS_P2;Temp;Humidity;BMP_temperature;BMP_pressure;BME280_temperature;BME280_humidity;BME280_pressure;Samples;Min_cycle;Max_cycle;Signal;HPM_P1;HPM_P2
2020/12/14 00:02:24;;;;;;;12.13;9.07;;;;;;;;;;4980599;28;20251;-79
2020/12/14 00:04:52;;;;;;;12.67;8.57;;;;;;;;;;4980274;28;20682;-78
2020/12/14 00:07:19;;;;;;;9.27;8.03;;;;;;;;;;4980725;28;20172;-80
2020/12/14 00:09:45;;;;;;;13.43;8.40;;;;;;;;;;4980388;28;20682;-79
2020/12/14 00:12:11;;;;;;;9.80;8.80;;;;;;;;;;4980501;28;20184;-78
2020/12/14 00:14:37;;;;;;;9.80;8.37;;;;;;;;;;4980410;28;20196;-79
2020/12/14 00:17:03;;;;;;;8.73;7.90;;;;;;;;;;4980235;28;20254;-80
2020/12/14 00:19:30;;;;;;;11.37;8.67;;;;;;;;;;4980165;28;20207;-79
2020/12/14 00:21:56;;;;;;;10.07;8.10;;;;;;;;;;4979759;28;20659;-79
2020/12/14 00:24:22;;;;;;;9.00;8.10;;;;;;;;;;4980474;28;20203;-79
2020/12/14 00:26:52;;;;;;;9.87;8.10;;;;;;;;;;4979694;28;20183;-80
2020/12/14 00:29:18;;;;;;;9.43;7.33;;;;;;;;;;4979715;28;20196;-79
2020/12/14 00:31:44;;;;;;;8.90;7.57;;;;;;;;;;4980504;28;20627;-79
2020/12/14 00:34:11;;;;;;;9.23;7.33;;;;;;;;;;4980496;28;20187;-80
2020/12/14 00:36:37;;;;;;;9.20;8.27;;;;;;;;;;4979477;28;20180;-79
2020/12/14 00:39:03;;;;;;;10.77;8.13;;;;;;;;;;4979025;28;20200;-80
2020/12/14 00:41:29;;;;;;;11.13;8.40;;;;;;;;;;4979978;28;20203;-78
2020/12/14 00:43:55;;;;;;;9.93;8.27;;;;;;;;;;4976417;28;20184;-80
2020/12/14 00:46:21;;;;;;;10.27;8.53;;;;;;;;;;4967486;28;20231;-80
2020/12/14 00:48:47;;;;;;;11.17;8.93;;;;;;;;;;4978965;28;20571;-79
2020/12/14 00:51:14;;;;;;;10.77;8.67;;;;;;;;;;4979337;28;20183;-80
2020/12/14 00:53:40;;;;;;;9.67;7.80;;;;;;;;;;4979606;28;20176;-80
2020/12/14 00:56:07;;;;;;;8.90;8.07;;;;;;;;;;4979637;28;20184;-79
2020/12/14 00:58:34;;;;;;;10.33;8.10;;;;;;;;;;4979487;28;20208;-79
2020/12/14 01:01:00;;;;;;;11.03;9.13;;;;;;;;;;4959835;28;20544;-79
2020/12/14 01:03:27;;;;;;;11.63;9.50;;;;;;;;;;4976345;28;20181;-79
2020/12/14 01:05:54;;;;;;;10.73;9.13;;;;;;;;;;4979715;28;20247;-79
2020/12/14 01:08:21;;;;;;;10.97;9.63;;;;;;;;;;4979205;28;20212;-79
2020/12/14 01:10:50;;;;;;;12.20;9.57;;;;;;;;;;4978642;28;20180;-78
2020/12/14 01:13:16;;;;;;;14.00;9.73;;;;;;;;;;4966188;28;20181;-80
2020/12/14 01:15:43;;;;;;;11.60;9.40;;;;;;;;;;4966051;28;20188;-78
2020/12/14 01:18:10;;;;;;;10.07;9.07;;;;;;;;;;4979087;28;20212;-79
2020/12/14 01:20:39;;;;;;;13.77;9.30;;;;;;;;;;4979710;28;20212;-80
2020/12/14 01:23:05;;;;;;;14.00;9.67;;;;;;;;;;4973583;28;20173;-78
2020/12/14 01:25:32;;;;;;;10.77;9.13;;;;;;;;;;4976686;28;20191;-80
2020/12/14 01:27:58;;;;;;;10.40;9.30;;;;;;;;;;4979402;28;20208;-80
2020/12/14 01:30:24;;;;;;;12.60;9.27;;;;;;;;;;4977520;28;20181;-80
2020/12/14 01:32:50;;;;;;;10.73;9.60;;;;;;;;;;4979679;28;20754;-80
2020/12/14 01:35:16;;;;;;;14.37;9.80;;;;;;;;;;4978909;28;20192;-79
2020/12/14 01:37:43;;;;;;;11.10;9.47;;;;;;;;;;4978387;28;20224;-80
2020/12/14 01:40:09;;;;;;;13.53;9.70;;;;;;;;;;4978482;28;20185;-80
2020/12/14 01:42:39;;;;;;;13.43;10.20;;;;;;;;;;4978306;28;20173;-80
2020/12/14 01:45:07;;;;;;;11.63;10.40;;;;;;;;;;4974372;28;20212;-80
2020/12/14 01:47:37;;;;;;;10.93;9.13;;;;;;;;;;4972430;28;20188;-80
2020/12/14 01:50:04;;;;;;;10.63;9.43;;;;;;;;;;4980457;28;20180;-80
2020/12/14 01:52:30;;;;;;;12.77;10.00;;;;;;;;;;4981562;28;20180;-80
2020/12/14 01:54:57;;;;;;;19.40;12.43;;;;;;;;;;4981459;28;20259;-79
2020/12/14 01:57:23;;;;;;;23.87;13.20;;;;;;;;;;4981709;28;20756;-80
2020/12/14 01:59:50;;;;;;;25.97;14.97;;;;;;;;;;4982023;28;20174;-80
2020/12/14 02:02:17;;;;;;;13.00;9.50;;;;;;;;;;4982646;28;20168;-80
2020/12/14 02:04:43;;;;;;;12.17;9.57;;;;;;;;;;4981700;28;20525;-80
2020/12/14 02:07:10;;;;;;;20.57;14.50;;;;;;;;;;4968405;28;20172;-79
2020/12/14 02:09:36;;;;;;;10.80;9.70;;;;;;;;;;4980303;28;20210;-80
2020/12/14 02:12:02;;;;;;;9.97;8.73;;;;;;;;;;4981833;28;20173;-80
2020/12/14 02:14:28;;;;;;;10.60;8.73;;;;;;;;;;4982075;28;20180;-79
2020/12/14 02:16:55;;;;;;;10.87;9.13;;;;;;;;;;4981951;28;20267;-79
2020/12/14 02:19:21;;;;;;;11.80;8.67;;;;;;;;;;4981716;28;20200;-79
2020/12/14 02:21:50;;;;;;;11.93;9.67;;;;;;;;;;4982040;28;20201;-79
2020/12/14 02:24:19;;;;;;;16.87;13.27;;;;;;;;;;4982143;28;20267;-80
2020/12/14 02:26:48;;;;;;;10.57;9.30;;;;;;;;;;4980617;28;20244;-79
2020/12/14 02:29:16;;;;;;;12.63;9.50;;;;;;;;;;4981234;28;20192;-80
2020/12/14 02:31:42;;;;;;;14.93;9.23;;;;;;;;;;4981522;28;20200;-79
2020/12/14 02:34:09;;;;;;;10.97;8.93;;;;;;;;;;4981309;28;20181;-79
2020/12/14 02:36:35;;;;;;;14.17;8.93;;;;;;;;;;4980799;28;20208;-78
2020/12/14 02:39:01;;;;;;;14.90;10.97;;;;;;;;;;4981196;28;20219;-79
2020/12/14 02:41:27;;;;;;;22.10;11.93;;;;;;;;;;4981391;28;20188;-79
2020/12/14 02:43:53;;;;;;;27.00;11.93;;;;;;;;;;4976164;28;20176;-79
2020/12/14 02:46:20;;;;;;;36.33;15.20;;;;;;;;;;4972696;28;20172;-80
2020/12/14 02:48:46;;;;;;;42.17;13.13;;;;;;;;;;4981230;28;20287;-80
2020/12/14 02:51:17;;;;;;;37.13;12.97;;;;;;;;;;4980372;28;20189;-79
2020/12/14 02:53:43;;;;;;;40.90;13.97;;;;;;;;;;4981193;28;20548;-80
2020/12/14 02:56:10;;;;;;;80.07;24.13;;;;;;;;;;4982207;28;20188;-79
2020/12/14 02:58:36;;;;;;;87.80;26.77;;;;;;;;;;4975568;28;20687;-80
2020/12/14 03:01:03;;;;;;;86.43;27.30;;;;;;;;;;4958316;28;20187;-78
2020/12/14 03:03:29;;;;;;;72.03;22.00;;;;;;;;;;4959031;28;20636;-79
2020/12/14 03:05:56;;;;;;;47.73;22.00;;;;;;;;;;4969570;28;20184;-79
2020/12/14 03:08:22;;;;;;;63.80;20.50;;;;;;;;;;4981192;28;20231;-80
2020/12/14 03:10:48;;;;;;;69.67;21.93;;;;;;;;;;4981671;28;20220;-79
2020/12/14 03:13:14;;;;;;;69.57;21.27;;;;;;;;;;4981344;28;20195;-80
2020/12/14 03:15:41;;;;;;;69.53;19.63;;;;;;;;;;4975464;28;20192;-80
2020/12/14 03:18:07;;;;;;;63.13;20.33;;;;;;;;;;4981371;28;20208;-80
2020/12/14 03:20:34;;;;;;;66.17;21.13;;;;;;;;;;4981098;28;20200;-79
2020/12/14 03:23:00;;;;;;;71.63;20.50;;;;;;;;;;4981549;28;20181;-80
2020/12/14 03:25:27;;;;;;;81.00;26.60;;;;;;;;;;4981025;28;20184;-78
2020/12/14 03:27:53;;;;;;;60.93;20.07;;;;;;;;;;4980759;28;20667;-80
2020/12/14 03:30:19;;;;;;;76.90;20.27;;;;;;;;;;4981185;28;20185;-79
2020/12/14 03:32:46;;;;;;;69.87;20.50;;;;;;;;;;4980833;28;20188;-79
2020/12/14 03:35:12;;;;;;;73.03;21.57;;;;;;;;;;4979151;28;20207;-79
2020/12/14 03:37:38;;;;;;;81.77;22.33;;;;;;;;;;4980716;28;20204;-79
2020/12/14 03:40:05;;;;;;;70.83;22.20;;;;;;;;;;4980417;28;20181;-79
2020/12/14 03:42:31;;;;;;;69.77;22.43;;;;;;;;;;4981128;28;20223;-79
2020/12/14 03:44:57;;;;;;;67.20;22.87;;;;;;;;;;4983342;28;20173;-80
2020/12/14 03:47:28;;;;;;;59.57;22.90;;;;;;;;;;4978410;28;20635;-81
2020/12/14 03:49:55;;;;;;;57.63;23.00;;;;;;;;;;4979473;28;20180;-80
2020/12/14 03:52:21;;;;;;;56.23;22.30;;;;;;;;;;4979858;28;20252;-80
2020/12/14 03:54:48;;;;;;;48.80;22.27;;;;;;;;;;4979469;28;20181;-80
2020/12/14 03:57:14;;;;;;;43.33;21.63;;;;;;;;;;4979280;28;20203;-80
2020/12/14 03:59:40;;;;;;;49.93;21.90;;;;;;;;;;4979065;28;20198;-79
2020/12/14 04:02:06;;;;;;;44.73;21.03;;;;;;;;;;4979413;28;20204;-79
2020/12/14 04:04:33;;;;;;;42.57;21.27;;;;;;;;;;4979049;28;20690;-80
2020/12/14 04:06:59;;;;;;;44.90;20.90;;;;;;;;;;4978254;28;20219;-79
2020/12/14 04:09:25;;;;;;;45.20;21.10;;;;;;;;;;4978101;28;20227;-80
2020/12/14 04:11:51;;;;;;;43.93;20.37;;;;;;;;;;4978395;28;20271;-80
2020/12/14 04:14:18;;;;;;;48.27;20.77;;;;;;;;;;4979507;28;20185;-80
2020/12/14 04:16:44;;;;;;;45.20;21.10;;;;;;;;;;4978170;28;20212;-81
2020/12/14 04:19:10;;;;;;;46.13;20.67;;;;;;;;;;4979356;28;20596;-78
2020/12/14 04:21:37;;;;;;;48.63;20.73;;;;;;;;;;4979232;28;20204;-80
2020/12/14 04:24:03;;;;;;;45.07;21.50;;;;;;;;;;4979816;28;20252;-80
2020/12/14 04:26:29;;;;;;;39.53;19.83;;;;;;;;;;4978959;28;20644;-79
2020/12/14 04:28:56;;;;;;;38.47;18.93;;;;;;;;;;4978951;28;20725;-79
2020/12/14 04:31:22;;;;;;;43.63;17.87;;;;;;;;;;4978842;28;20187;-79
2020/12/14 04:33:49;;;;;;;30.70;17.70;;;;;;;;;;4979435;28;20180;-80
2020/12/14 04:36:15;;;;;;;38.80;17.60;;;;;;;;;;4979390;28;20173;-80
2020/12/14 04:38:41;;;;;;;42.70;18.57;;;;;;;;;;4979299;28;20224;-80
2020/12/14 04:41:08;;;;;;;57.67;17.90;;;;;;;;;;4967877;28;20168;-79
2020/12/14 04:43:34;;;;;;;58.83;18.37;;;;;;;;;;4979496;28;20187;-79
2020/12/14 04:46:03;;;;;;;68.80;18.03;;;;;;;;;;4965596;28;20176;-80
2020/12/14 04:48:30;;;;;;;45.80;18.10;;;;;;;;;;4977755;28;20200;-80
2020/12/14 04:50:56;;;;;;;59.27;17.73;;;;;;;;;;4978718;28;20180;-80
2020/12/14 04:53:23;;;;;;;32.77;18.47;;;;;;;;;;4979607;28;20594;-79
2020/12/14 04:55:49;;;;;;;40.90;20.90;;;;;;;;;;4979754;28;20263;-79
2020/12/14 04:58:16;;;;;;;63.40;19.97;;;;;;;;;;4979085;28;20208;-80
2020/12/14 05:00:42;;;;;;;67.67;22.43;;;;;;;;;;4970624;28;20649;-79
2020/12/14 05:03:08;;;;;;;42.73;21.80;;;;;;;;;;4948187;28;20213;-80
2020/12/14 05:05:35;;;;;;;43.50;21.13;;;;;;;;;;4962453;28;20188;-80
2020/12/14 05:08:01;;;;;;;40.33;21.43;;;;;;;;;;4959230;28;20209;-79
2020/12/14 05:10:28;;;;;;;44.17;21.40;;;;;;;;;;4963540;28;20180;-79
2020/12/14 05:12:54;;;;;;;38.43;20.10;;;;;;;;;;4979018;28;20221;-79
2020/12/14 05:15:22;;;;;;;60.10;25.93;;;;;;;;;;4980040;28;20192;-80
2020/12/14 05:17:53;;;;;;;50.47;23.77;;;;;;;;;;4979765;28;20579;-79
2020/12/14 05:20:20;;;;;;;46.33;22.00;;;;;;;;;;4979639;28;20188;-79
2020/12/14 05:22:56;;;;;;;41.70;20.53;;;;;;;;;;4977968;28;20184;-79
2020/12/14 05:25:23;;;;;;;60.60;20.40;;;;;;;;;;4979201;28;20200;-79
2020/12/14 05:27:59;;;;;;;46.10;19.97;;;;;;;;;;4978970;28;20611;-80
2020/12/14 05:30:32;;;;;;;42.97;18.83;;;;;;;;;;4978058;28;20180;-79
2020/12/14 05:33:02;;;;;;;45.77;18.73;;;;;;;;;;4978157;28;20185;-79
2020/12/14 05:35:35;;;;;;;33.67;19.50;;;;;;;;;;4978587;28;20184;-79
2020/12/14 05:38:11;;;;;;;35.67;17.27;;;;;;;;;;4978140;28;20220;-79
2020/12/14 05:40:37;;;;;;;44.03;18.83;;;;;;;;;;4977962;28;20172;-80
2020/12/14 05:43:07;;;;;;;37.10;18.70;;;;;;;;;;4978089;28;20252;-80
2020/12/14 05:45:34;;;;;;;42.80;19.33;;;;;;;;;;4970240;28;20263;-79
2020/12/14 05:48:00;;;;;;;55.00;21.27;;;;;;;;;;4978573;28;20254;-79
2020/12/14 05:50:27;;;;;;;49.00;22.83;;;;;;;;;;4979367;28;20569;-80
2020/12/14 05:52:54;;;;;;;47.50;20.93;;;;;;;;;;4977127;28;20179;-80
2020/12/14 05:55:22;;;;;;;41.33;20.03;;;;;;;;;;4978430;28;20222;-79
2020/12/14 05:57:49;;;;;;;46.10;20.90;;;;;;;;;;4977558;28;20294;-79
2020/12/14 06:00:16;;;;;;;52.20;20.53;;;;;;;;;;4977622;28;20177;-80
2020/12/14 06:02:42;;;;;;;60.47;22.47;;;;;;;;;;4977780;28;20177;-80
2020/12/14 06:05:09;;;;;;;50.77;22.57;;;;;;;;;;4977921;28;20231;-80
2020/12/14 06:07:41;;;;;;;49.27;20.90;;;;;;;;;;4979953;28;20208;-80
2020/12/14 06:10:14;;;;;;;61.47;21.33;;;;;;;;;;4980681;28;20172;-80
2020/12/14 06:12:42;;;;;;;45.37;19.73;;;;;;;;;;4980426;28;20187;-79
2020/12/14 06:15:10;;;;;;;38.23;18.37;;;;;;;;;;4976514;28;20270;-79
2020/12/14 06:17:37;;;;;;;32.17;17.60;;;;;;;;;;4977739;28;20200;-80
2020/12/14 06:20:06;;;;;;;38.77;20.73;;;;;;;;;;4977799;28;20181;-81
2020/12/14 06:22:33;;;;;;;55.40;24.10;;;;;;;;;;4976291;28;20695;-81
2020/12/14 06:25:00;;;;;;;65.37;25.07;;;;;;;;;;4978177;28;20263;-80
2020/12/14 06:27:28;;;;;;;67.27;28.77;;;;;;;;;;4975846;28;20271;-81
2020/12/14 06:29:54;;;;;;;61.77;27.87;;;;;;;;;;4976168;28;20184;-81
2020/12/14 06:32:49;;;;;;;71.47;30.30;;;;;;;;;;4976625;28;20204;-81
2020/12/14 06:35:16;;;;;;;71.40;29.13;;;;;;;;;;4961439;28;20177;-81
2020/12/14 06:37:53;;;;;;;66.83;28.83;;;;;;;;;;4979389;28;20196;-80
2020/12/14 06:40:19;;;;;;;76.90;30.83;;;;;;;;;;4979048;28;20182;-81
2020/12/14 06:42:46;;;;;;;72.70;30.53;;;;;;;;;;4980816;28;20176;-81
2020/12/14 06:45:13;;;;;;;75.83;29.87;;;;;;;;;;4976049;28;20185;-81
2020/12/14 06:47:40;;;;;;;72.53;30.77;;;;;;;;;;4977130;28;20181;-81
2020/12/14 06:50:25;;;;;;;75.70;31.13;;;;;;;;;;4980646;28;20185;-81
2020/12/14 06:52:51;;;;;;;82.63;32.47;;;;;;;;;;4980333;28;20177;-81
2020/12/14 06:55:37;;;;;;;73.97;31.57;;;;;;;;;;4980224;28;20263;-81
2020/12/14 06:58:04;;;;;;;76.77;30.97;;;;;;;;;;4979875;28;20709;-80
2020/12/14 07:00:33;;;;;;;66.93;28.47;;;;;;;;;;4978848;28;20183;-80
2020/12/14 07:03:00;;;;;;;68.63;28.67;;;;;;;;;;4979950;28;20184;-81
2020/12/14 07:05:29;;;;;;;78.10;29.73;;;;;;;;;;4978341;28;20169;-81
2020/12/14 07:07:55;;;;;;;61.63;28.50;;;;;;;;;;4979944;28;20204;-81
2020/12/14 07:10:24;;;;;;;45.07;23.30;;;;;;;;;;4978272;28;20187;-81
2020/12/14 07:12:51;;;;;;;41.73;22.83;;;;;;;;;;4978355;28;20579;-81
2020/12/14 07:15:32;;;;;;;52.67;25.47;;;;;;;;;;4965951;28;20625;-81
2020/12/14 07:18:08;;;;;;;59.70;27.47;;;;;;;;;;4979517;28;20212;-81
2020/12/14 07:20:35;;;;;;;49.77;24.87;;;;;;;;;;4979616;28;20222;-81
2020/12/14 07:23:05;;;;;;;38.60;20.40;;;;;;;;;;4977440;28;20218;-81
2020/12/14 07:25:32;;;;;;;33.87;20.10;;;;;;;;;;4977419;28;20187;-81
2020/12/14 07:27:58;;;;;;;35.97;20.73;;;;;;;;;;4978986;28;20211;-80
2020/12/14 07:30:24;;;;;;;33.47;20.00;;;;;;;;;;4978777;28;20181;-81
2020/12/14 07:32:50;;;;;;;35.37;20.07;;;;;;;;;;4977618;28;20185;-81
2020/12/14 07:35:16;;;;;;;43.90;18.53;;;;;;;;;;4978282;28;20263;-80
2020/12/14 07:37:42;;;;;;;28.07;17.67;;;;;;;;;;4977034;28;20207;-79
2020/12/14 07:40:09;;;;;;;32.17;17.20;;;;;;;;;;4978488;28;20231;-81
2020/12/14 07:42:37;;;;;;;31.37;16.07;;;;;;;;;;4979000;28;20561;-80
2020/12/14 07:45:06;;;;;;;29.73;17.00;;;;;;;;;;4973515;28;20185;-81
2020/12/14 07:47:32;;;;;;;22.07;15.17;;;;;;;;;;4973786;28;20267;-81
2020/12/14 07:50:13;;;;;;;17.70;13.80;;;;;;;;;;4978355;28;20663;-79
2020/12/14 07:52:40;;;;;;;20.07;13.80;;;;;;;;;;4978548;28;20639;-80
2020/12/14 07:55:08;;;;;;;22.20;14.97;;;;;;;;;;4978615;28;20185;-80
2020/12/14 07:57:37;;;;;;;24.10;16.77;;;;;;;;;;4978191;28;20220;-80
2020/12/14 08:00:08;;;;;;;24.27;15.00;;;;;;;;;;4978164;28;20263;-80
2020/12/14 08:02:34;;;;;;;25.03;15.30;;;;;;;;;;4978049;28;20231;-81
2020/12/14 08:05:05;;;;;;;24.10;15.43;;;;;;;;;;4978315;28;20187;-79
2020/12/14 08:07:45;;;;;;;25.40;16.07;;;;;;;;;;4978332;28;20192;-81
2020/12/14 08:10:12;;;;;;;23.20;14.70;;;;;;;;;;4978294;28;20199;-80
2020/12/14 08:12:41;;;;;;;24.13;15.93;;;;;;;;;;4978066;28;20181;-81
2020/12/14 08:15:20;;;;;;;35.37;16.73;;;;;;;;;;4977479;28;20173;-79
2020/12/14 08:17:47;;;;;;;28.80;15.97;;;;;;;;;;4977881;28;20224;-81
2020/12/14 08:20:29;;;;;;;23.53;15.67;;;;;;;;;;4976975;28;20674;-80
2020/12/14 08:22:56;;;;;;;23.97;15.13;;;;;;;;;;4977213;28;20191;-80
2020/12/14 08:25:27;;;;;;;24.73;15.47;;;;;;;;;;4977227;28;20263;-81
2020/12/14 08:27:56;;;;;;;20.50;14.63;;;;;;;;;;4961857;28;20201;-80
2020/12/14 08:30:23;;;;;;;21.13;14.17;;;;;;;;;;4959069;28;20203;-80
2020/12/14 08:33:08;;;;;;;23.53;16.00;;;;;;;;;;4976479;28;20193;-80
2020/12/14 08:35:34;;;;;;;21.17;14.97;;;;;;;;;;4976526;28;20542;-80
2020/12/14 08:38:02;;;;;;;21.67;15.30;;;;;;;;;;4976019;28;20212;-80
2020/12/14 08:40:29;;;;;;;20.87;15.33;;;;;;;;;;4975970;28;20661;-80
2020/12/14 08:43:16;;;;;;;20.33;14.90;;;;;;;;;;4976088;28;20180;-79
2020/12/14 08:46:02;;;;;;;20.70;15.03;;;;;;;;;;4967303;28;20173;-80
2020/12/14 08:48:29;;;;;;;19.90;14.13;;;;;;;;;;4976560;28;20609;-80
2020/12/14 08:51:06;;;;;;;22.90;16.17;;;;;;;;;;4974683;28;20184;-80
2020/12/14 08:53:32;;;;;;;22.67;15.00;;;;;;;;;;4976123;28;20184;-80
2020/12/14 08:56:06;;;;;;;25.23;16.27;;;;;;;;;;4977220;28;20546;-80
2020/12/14 08:58:45;;;;;;;22.13;14.73;;;;;;;;;;4975493;28;20234;-80
2020/12/14 09:01:11;;;;;;;24.40;15.47;;;;;;;;;;4976104;28;20200;-80
2020/12/14 09:03:55;;;;;;;23.23;15.33;;;;;;;;;;4975489;28;20179;-80
2020/12/14 09:06:25;;;;;;;25.20;16.23;;;;;;;;;;4975662;28;20635;-80
2020/12/14 09:09:01;;;;;;;23.23;15.87;;;;;;;;;;4975548;28;20247;-80
2020/12/14 09:11:31;;;;;;;23.47;15.70;;;;;;;;;;4975462;28;20176;-79
2020/12/14 09:14:07;;;;;;;27.37;16.67;;;;;;;;;;4975789;28;20187;-80
2020/12/14 09:16:34;;;;;;;23.10;16.70;;;;;;;;;;4975799;28;20180;-80
2020/12/14 09:19:01;;;;;;;21.03;14.93;;;;;;;;;;4975250;28;20285;-80
2020/12/14 09:21:30;;;;;;;18.07;13.73;;;;;;;;;;4975642;28;20211;-79
2020/12/14 09:24:16;;;;;;;15.20;12.40;;;;;;;;;;4970106;28;20175;-80
2020/12/14 09:26:43;;;;;;;16.50;13.13;;;;;;;;;;4974318;28;20654;-80
2020/12/14 09:29:10;;;;;;;20.47;13.60;;;;;;;;;;4975274;28;20250;-79
2020/12/14 09:31:38;;;;;;;24.63;15.70;;;;;;;;;;4975315;28;20650;-79
2020/12/14 09:34:04;;;;;;;25.07;15.40;;;;;;;;;;4973969;28;20179;-80
2020/12/14 09:36:30;;;;;;;24.53;16.33;;;;;;;;;;4973757;28;20231;-79
2020/12/14 09:38:57;;;;;;;24.53;16.97;;;;;;;;;;4975153;28;20291;-79
2020/12/14 09:41:24;;;;;;;23.03;16.20;;;;;;;;;;4974066;28;20728;-78
2020/12/14 09:43:50;;;;;;;22.83;15.53;;;;;;;;;;4975033;28;20654;-80
2020/12/14 09:46:17;;;;;;;21.17;14.40;;;;;;;;;;4966653;28;20227;-80
2020/12/14 09:48:43;;;;;;;20.73;15.03;;;;;;;;;;4975148;28;20223;-79
2020/12/14 09:51:09;;;;;;;22.70;15.50;;;;;;;;;;4975843;28;20184;-79
2020/12/14 09:53:36;;;;;;;24.63;16.43;;;;;;;;;;4975687;28;20678;-78
2020/12/14 09:56:03;;;;;;;25.57;16.43;;;;;;;;;;4975634;28;20583;-80
2020/12/14 09:58:30;;;;;;;24.17;16.07;;;;;;;;;;4976485;28;20691;-80
2020/12/14 10:00:56;;;;;;;26.50;17.47;;;;;;;;;;4976154;28;20268;-80
2020/12/14 10:03:23;;;;;;;25.60;16.47;;;;;;;;;;4974281;28;20176;-80
2020/12/14 10:05:49;;;;;;;26.63;19.03;;;;;;;;;;4976351;28;20181;-80
2020/12/14 10:08:16;;;;;;;24.90;17.27;;;;;;;;;;4976249;28;20208;-80
2020/12/14 10:10:43;;;;;;;25.67;16.80;;;;;;;;;;4978928;28;20180;-80
2020/12/14 10:13:11;;;;;;;24.73;15.50;;;;;;;;;;4980194;28;20591;-80
2020/12/14 10:15:37;;;;;;;26.27;16.67;;;;;;;;;;4978272;28;20181;-80
2020/12/14 10:18:04;;;;;;;24.67;17.33;;;;;;;;;;4979034;28;20623;-79
2020/12/14 10:20:30;;;;;;;20.77;14.87;;;;;;;;;;4977028;28;20660;-79
2020/12/14 10:22:57;;;;;;;21.37;15.33;;;;;;;;;;4979855;28;20185;-79
2020/12/14 10:25:24;;;;;;;20.40;14.73;;;;;;;;;;4978383;28;20176;-80
2020/12/14 10:27:51;;;;;;;25.63;15.93;;;;;;;;;;4978500;28;20231;-80
2020/12/14 10:30:18;;;;;;;31.97;20.23;;;;;;;;;;4980013;28;20519;-80
2020/12/14 10:32:44;;;;;;;28.77;17.13;;;;;;;;;;4980248;28;20519;-80
2020/12/14 10:35:12;;;;;;;20.87;15.30;;;;;;;;;;4979936;28;20208;-80
2020/12/14 10:37:38;;;;;;;28.83;16.13;;;;;;;;;;4978579;28;20208;-81
2020/12/14 10:40:06;;;;;;;32.80;20.27;;;;;;;;;;4974100;28;20177;-80
2020/12/14 10:42:33;;;;;;;28.60;18.17;;;;;;;;;;4979574;28;20181;-80
2020/12/14 10:45:01;;;;;;;23.77;16.80;;;;;;;;;;4976636;28;20652;-80
2020/12/14 10:47:27;;;;;;;22.00;14.70;;;;;;;;;;4976296;28;20173;-80
2020/12/14 10:49:55;;;;;;;23.17;16.17;;;;;;;;;;4981475;28;20180;-80
2020/12/14 10:52:21;;;;;;;25.63;17.37;;;;;;;;;;4981267;28;20275;-80
2020/12/14 10:54:50;;;;;;;23.17;15.30;;;;;;;;;;4979932;28;20176;-80
2020/12/14 10:57:16;;;;;;;20.17;15.00;;;;;;;;;;4978496;28;20200;-81
2020/12/14 10:59:42;;;;;;;20.23;14.53;;;;;;;;;;4980220;28;20199;-80
2020/12/14 11:02:09;;;;;;;23.37;14.77;;;;;;;;;;4980093;28;20169;-80
2020/12/14 11:04:36;;;;;;;16.97;13.80;;;;;;;;;;4979076;28;20184;-80
2020/12/14 11:07:02;;;;;;;23.63;14.80;;;;;;;;;;4978522;28;20545;-80
2020/12/14 11:09:28;;;;;;;26.23;16.37;;;;;;;;;;4978870;28;20193;-80
2020/12/14 11:11:55;;;;;;;25.77;17.13;;;;;;;;;;4979709;28;20187;-80
2020/12/14 11:14:21;;;;;;;23.73;16.20;;;;;;;;;;4979202;28;20175;-80
2020/12/14 11:16:47;;;;;;;21.97;16.27;;;;;;;;;;4978119;28;20168;-80
2020/12/14 11:19:14;;;;;;;29.43;16.33;;;;;;;;;;4977795;28;20207;-80
2020/12/14 11:21:40;;;;;;;33.33;17.97;;;;;;;;;;4976609;28;20662;-80
2020/12/14 11:24:07;;;;;;;26.03;17.43;;;;;;;;;;4978476;28;20176;-80
2020/12/14 11:26:33;;;;;;;30.07;17.23;;;;;;;;;;4964001;28;20557;-80
2020/12/14 11:28:59;;;;;;;23.60;14.87;;;;;;;;;;4962071;28;20200;-80
2020/12/14 11:31:25;;;;;;;19.97;16.37;;;;;;;;;;4977405;28;20181;-80
2020/12/14 11:33:51;;;;;;;24.53;15.83;;;;;;;;;;4977282;28;20184;-80
2020/12/14 11:36:22;;;;;;;22.60;16.50;;;;;;;;;;4978996;28;20251;-80
2020/12/14 11:38:48;;;;;;;25.33;16.80;;;;;;;;;;4978538;28;20208;-80
2020/12/14 11:41:15;;;;;;;24.40;16.27;;;;;;;;;;4978705;28;20249;-80
2020/12/14 11:43:41;;;;;;;24.73;16.57;;;;;;;;;;4961126;28;20229;-79
2020/12/14 11:46:06;;;;;;;27.70;17.53;;;;;;;;;;4970063;28;20184;-80
2020/12/14 11:48:33;;;;;;;28.93;17.97;;;;;;;;;;4978521;28;20235;-81
2020/12/14 11:50:59;;;;;;;23.57;15.90;;;;;;;;;;4978645;28;20179;-78
2020/12/14 11:53:25;;;;;;;26.83;17.63;;;;;;;;;;4977445;28;20616;-80
2020/12/14 11:55:51;;;;;;;29.03;19.53;;;;;;;;;;4979422;28;20678;-81
2020/12/14 11:58:17;;;;;;;27.33;18.50;;;;;;;;;;4977413;28;20232;-78
2020/12/14 12:00:43;;;;;;;20.47;15.70;;;;;;;;;;4979054;28;20261;-80
2020/12/14 12:03:19;;;;;;;25.90;16.90;;;;;;;;;;4978790;28;20180;-80
2020/12/14 12:05:46;;;;;;;17.70;13.07;;;;;;;;;;4978305;28;20179;-80
2020/12/14 12:08:12;;;;;;;19.13;13.37;;;;;;;;;;4976936;28;20680;-79
2020/12/14 12:10:38;;;;;;;19.73;13.97;;;;;;;;;;4978562;28;20189;-79
2020/12/14 12:13:04;;;;;;;19.70;15.10;;;;;;;;;;4978732;28;20188;-81
2020/12/14 12:15:30;;;;;;;23.20;15.27;;;;;;;;;;4978351;28;20172;-80
2020/12/14 12:17:56;;;;;;;19.20;15.03;;;;;;;;;;4978768;28;20212;-79
2020/12/14 12:20:22;;;;;;;21.23;15.37;;;;;;;;;;4978538;28;20204;-80
2020/12/14 12:22:49;;;;;;;18.30;14.40;;;;;;;;;;4978503;28;20180;-80
2020/12/14 12:25:15;;;;;;;20.80;15.60;;;;;;;;;;4978485;28;20183;-80
2020/12/14 12:27:41;;;;;;;22.53;14.97;;;;;;;;;;4979093;28;20259;-80
2020/12/14 12:30:07;;;;;;;22.80;15.63;;;;;;;;;;4979698;28;20184;-80
2020/12/14 12:32:33;;;;;;;21.47;16.27;;;;;;;;;;4978599;28;20183;-80
2020/12/14 12:34:59;;;;;;;19.53;14.43;;;;;;;;;;4977972;28;20185;-80
2020/12/14 12:37:26;;;;;;;16.77;14.03;;;;;;;;;;4967735;28;20232;-78
2020/12/14 12:39:52;;;;;;;21.47;14.80;;;;;;;;;;4957714;28;20178;-78
2020/12/14 12:42:18;;;;;;;16.80;13.67;;;;;;;;;;4969869;28;20636;-78
2020/12/14 12:44:44;;;;;;;18.93;13.77;;;;;;;;;;4973086;28;20259;-79
2020/12/14 12:47:11;;;;;;;20.07;15.57;;;;;;;;;;4967270;28;20206;-77
2020/12/14 12:49:37;;;;;;;19.60;15.20;;;;;;;;;;4971122;28;20205;-78
2020/12/14 12:52:04;;;;;;;49.97;25.83;;;;;;;;;;4956537;28;20180;-78
2020/12/14 12:54:30;;;;;;;22.37;16.40;;;;;;;;;;4957768;28;20200;-78
2020/12/14 12:57:01;;;;;;;18.60;14.40;;;;;;;;;;4975925;28;20181;-78
2020/12/14 12:59:27;;;;;;;18.43;14.47;;;;;;;;;;4975522;28;20200;-78
2020/12/14 13:01:53;;;;;;;18.67;14.87;;;;;;;;;;4974392;28;20184;-78
2020/12/14 13:04:20;;;;;;;17.90;13.93;;;;;;;;;;4975800;28;20176;-78
2020/12/14 13:06:46;;;;;;;42.03;25.43;;;;;;;;;;4972360;28;20199;-79
2020/12/14 13:09:12;;;;;;;19.10;15.33;;;;;;;;;;4947623;28;20252;-79
2020/12/14 13:11:40;;;;;;;18.07;14.80;;;;;;;;;;4949972;28;20257;-78
2020/12/14 13:14:06;;;;;;;21.97;16.63;;;;;;;;;;4943165;28;20182;-78
2020/12/14 13:16:32;;;;;;;22.40;16.33;;;;;;;;;;4949048;28;20193;-78
2020/12/14 13:18:59;;;;;;;19.80;15.93;;;;;;;;;;4956077;28;20758;-78
2020/12/14 13:21:29;;;;;;;25.03;17.60;;;;;;;;;;4951673;28;20205;-78
2020/12/14 13:23:56;;;;;;;27.00;17.90;;;;;;;;;;4958765;28;20754;-79
2020/12/14 13:26:22;;;;;;;30.60;17.23;;;;;;;;;;4952833;28;20231;-78
2020/12/14 13:28:49;;;;;;;30.80;18.00;;;;;;;;;;4958667;28;20264;-78
2020/12/14 13:31:16;;;;;;;30.47;19.23;;;;;;;;;;4958935;28;20181;-79
2020/12/14 13:33:44;;;;;;;29.40;19.47;;;;;;;;;;4951551;28;20197;-79
2020/12/14 13:36:10;;;;;;;32.57;21.13;;;;;;;;;;4958453;28;20249;-78
2020/12/14 13:38:36;;;;;;;26.63;18.27;;;;;;;;;;4953557;28;20221;-78
2020/12/14 13:41:03;;;;;;;27.23;17.83;;;;;;;;;;4961446;28;20181;-78
2020/12/14 13:43:30;;;;;;;23.40;17.13;;;;;;;;;;4953126;28;20192;-79
2020/12/14 13:45:56;;;;;;;30.10;18.07;;;;;;;;;;4953851;28;20219;-78
2020/12/14 13:48:22;;;;;;;26.57;17.97;;;;;;;;;;4979434;28;20203;-78
2020/12/14 13:50:49;;;;;;;27.63;18.93;;;;;;;;;;4980183;28;20220;-79
2020/12/14 13:53:15;;;;;;;28.20;19.03;;;;;;;;;;4971730;28;20226;-78
2020/12/14 13:55:43;;;;;;;32.23;20.77;;;;;;;;;;4961161;28;20285;-78
2020/12/14 13:58:09;;;;;;;26.80;17.40;;;;;;;;;;4961203;28;20699;-78
2020/12/14 14:00:35;;;;;;;33.57;20.37;;;;;;;;;;4980120;28;20586;-77
2020/12/14 14:03:01;;;;;;;28.03;18.30;;;;;;;;;;4979172;28;20190;-78
2020/12/14 14:05:30;;;;;;;83.87;38.13;;;;;;;;;;4979167;28;20595;-78
2020/12/14 14:07:56;;;;;;;58.40;29.23;;;;;;;;;;4978883;28;20208;-78
2020/12/14 14:10:24;;;;;;;120.83;51.07;;;;;;;;;;4977556;28;20182;-78
2020/12/14 14:12:51;;;;;;;51.83;26.17;;;;;;;;;;4978938;28;20189;-78
2020/12/14 14:15:17;;;;;;;39.33;22.77;;;;;;;;;;4978876;28;20656;-77
2020/12/14 14:17:43;;;;;;;54.43;28.17;;;;;;;;;;4978721;28;20254;-78
2020/12/14 14:20:09;;;;;;;68.10;36.70;;;;;;;;;;4977666;28;20204;-77
2020/12/14 14:22:35;;;;;;;46.50;26.23;;;;;;;;;;4965751;28;20179;-78